Time;durP1;ratioP1;P1;durP2;ratioP2;P2;SDS_P1;SDS_P2;PMS_P1;PMS_P2;Temp;Humidity;BMP_temperature;BMP_pressure;BME280_temperature;BME280_humidity;BME280_pressure;Samples;Min_cycle;Max_cycle;Signal;HPM_P1;HPM_P2
2021/05/25 00:00:24;;;;;;;0.40;0.20;;;9.40;99.90;;;;;;5024535;28;20400;-75
2021/05/25 00:02:50;;;;;;;0.40;0.20;;;9.40;99.90;;;;;;5016508;28;20443;-74
2021/05/25 00:05:26;;;;;;;0.40;0.20;;;9.40;99.90;;;;;;5016509;28;20377;-77
2021/05/25 00:07:52;;;;;;;0.40;0.30;;;9.40;99.90;;;;;;5021381;28;20422;-73
2021/05/25 00:10:18;;;;;;;0.40;0.20;;;9.40;99.90;;;;;;5022942;28;20389;-75
2021/05/25 00:12:44;;;;;;;0.40;0.30;;;10.40;99.90;;;;;;5018327;28;20446;-78
2021/05/25 00:15:14;;;;;;;0.40;0.20;;;9.40;99.90;;;;;;5006081;28;20391;-76
2021/05/25 00:17:40;;;;;;;0.40;0.20;;;9.40;99.90;;;;;;5018120;28;20465;-75
2021/05/25 00:20:08;;;;;;;0.40;0.20;;;9.50;99.90;;;;;;5025653;28;20383;-75
2021/05/25 00:22:35;;;;;;;0.40;0.20;;;9.40;99.90;;;;;;5003477;28;20400;-75
2021/05/25 00:25:00;;;;;;;0.40;0.20;;;9.40;99.90;;;;;;5018446;28;20637;-74
2021/05/25 00:27:26;;;;;;;0.40;0.20;;;9.50;99.90;;;;;;5023994;28;20858;-75
2021/05/25 00:29:52;;;;;;;0.40;0.20;;;9.60;99.90;;;;;;5021108;28;20515;-74
2021/05/25 00:32:17;;;;;;;0.40;0.20;;;9.80;99.90;;;;;;5014822;28;20440;-75
2021/05/25 00:34:43;;;;;;;0.40;0.20;;;9.50;99.90;;;;;;5017186;28;20420;-76
2021/05/25 00:37:09;;;;;;;0.40;0.30;;;9.60;99.90;;;;;;5015677;28;20376;-76
2021/05/25 00:39:35;;;;;;;0.40;0.20;;;10.30;99.90;;;;;;5008286;28;20403;-74
2021/05/25 00:42:01;;;;;;;0.40;0.20;;;9.80;99.90;;;;;;5016947;28;20384;-77
2021/05/25 00:44:26;;;;;;;0.40;0.30;;;9.70;99.90;;;;;;5013757;28;20621;-75
2021/05/25 00:46:52;;;;;;;0.40;0.30;;;9.80;99.90;;;;;;5018657;28;20393;-77
2021/05/25 00:49:18;;;;;;;0.40;0.30;;;9.70;99.90;;;;;;5022534;28;20801;-74
2021/05/25 00:51:44;;;;;;;0.40;0.20;;;9.80;99.90;;;;;;5017667;28;20388;-75
2021/05/25 00:54:10;;;;;;;0.40;0.30;;;9.90;99.90;;;;;;5019452;28;20383;-77
2021/05/25 00:56:35;;;;;;;0.40;0.20;;;9.80;99.90;;;;;;5018854;28;20392;-74
2021/05/25 00:59:02;;;;;;;0.40;0.30;;;9.80;99.90;;;;;;5016612;28;20397;-74
2021/05/25 01:01:28;;;;;;;0.40;0.20;;;9.80;99.90;;;;;;5020663;28;20518;-74
2021/05/25 01:03:55;;;;;;;0.40;0.30;;;9.80;99.90;;;;;;5005608;28;20401;-74
2021/05/25 01:06:20;;;;;;;0.40;0.30;;;9.90;99.90;;;;;;5029364;28;20730;-75
2021/05/25 01:08:46;;;;;;;0.40;0.30;;;10.00;99.90;;;;;;5014010;28;20416;-82
2021/05/25 01:11:14;;;;;;;0.40;0.30;;;9.90;99.90;;;;;;5021350;28;20474;-76
2021/05/25 01:13:49;;;;;;;0.40;0.30;;;9.90;99.90;;;;;;5002774;28;20406;-76
2021/05/25 01:16:18;;;;;;;0.40;0.20;;;9.80;99.90;;;;;;5016046;28;20474;-75
2021/05/25 01:18:45;;;;;;;0.40;0.20;;;9.50;99.90;;;;;;5019104;28;20873;-74
2021/05/25 01:21:12;;;;;;;0.40;0.22;;;9.40;99.90;;;;;;5019807;28;20383;-75
2021/05/25 01:23:39;;;;;;;0.40;0.20;;;9.50;99.90;;;;;;5013758;28;20392;-73
2021/05/25 01:26:06;;;;;;;0.40;0.28;;;9.40;99.90;;;;;;5016648;28;20379;-76
2021/05/25 01:28:33;;;;;;;0.40;0.20;;;9.60;99.90;;;;;;5009411;28;20405;-72
2021/05/25 01:31:00;;;;;;;0.40;0.30;;;10.30;99.90;;;;;;5018646;28;20503;-72
2021/05/25 01:33:28;;;;;;;0.40;0.30;;;9.60;99.90;;;;;;5027267;28;20387;-73
2021/05/25 01:35:54;;;;;;;0.40;0.30;;;10.00;99.90;;;;;;5019756;28;20393;-75
2021/05/25 01:38:21;;;;;;;0.40;0.22;;;9.50;99.90;;;;;;4994698;28;20447;-75
2021/05/25 01:40:47;;;;;;;0.40;0.30;;;9.60;99.90;;;;;;5001287;28;20735;-75
2021/05/25 01:43:14;;;;;;;0.40;0.30;;;9.60;99.90;;;;;;5025987;28;20405;-78
2021/05/25 01:45:40;;;;;;;0.40;0.30;;;9.60;99.90;;;;;;5009469;28;20734;-74
2021/05/25 01:48:07;;;;;;;0.40;0.20;;;9.60;99.90;;;;;;5019756;28;20407;-74
2021/05/25 01:50:35;;;;;;;0.40;0.20;;;9.60;99.90;;;;;;5010464;28;20418;-72
2021/05/25 01:53:15;;;;;;;0.40;0.20;;;9.70;99.90;;;;;;5011738;28;20385;-74
2021/05/25 01:55:53;;;;;;;0.40;0.20;;;10.70;99.90;;;;;;5013892;28;20463;-72
2021/05/25 01:58:21;;;;;;;0.40;0.20;;;9.60;99.90;;;;;;5020649;28;20822;-72
2021/05/25 02:00:54;;;;;;;0.40;0.30;;;9.50;99.90;;;;;;5005090;28;20403;-73
2021/05/25 02:03:21;;;;;;;0.40;0.30;;;9.40;99.90;;;;;;5029733;28;20449;-76
2021/05/25 02:05:47;;;;;;;0.40;0.20;;;9.60;99.90;;;;;;5016686;28;20730;-72
2021/05/25 02:08:14;;;;;;;0.40;0.30;;;9.50;99.90;;;;;;5022696;28;20895;-72
2021/05/25 02:11:02;;;;;;;0.40;0.20;;;9.40;99.90;;;;;;5023548;28;20612;-72
2021/05/25 02:13:30;;;;;;;0.40;0.30;;;9.50;99.90;;;;;;5013788;28;20392;-73
2021/05/25 02:15:58;;;;;;;0.40;0.30;;;9.50;99.90;;;;;;5018708;28;20379;-72
2021/05/25 02:18:29;;;;;;;0.40;0.30;;;10.20;99.90;;;;;;5019611;28;20396;-73
2021/05/25 02:20:58;;;;;;;0.40;0.20;;;9.60;99.90;;;;;;5026958;28;20395;-72
2021/05/25 02:23:24;;;;;;;0.40;0.20;;;9.70;99.90;;;;;;5014211;28;20796;-72
2021/05/25 02:25:50;;;;;;;0.40;0.20;;;9.40;99.90;;;;;;5024785;28;20438;-72
2021/05/25 02:28:16;;;;;;;0.40;0.20;;;9.20;99.90;;;;;;5021313;28;20517;-73
2021/05/25 02:30:43;;;;;;;0.40;0.20;;;9.40;99.90;;;;;;5017043;28;20862;-74
2021/05/25 02:33:13;;;;;;;0.40;0.30;;;9.10;99.90;;;;;;5027303;28;20418;-72
2021/05/25 02:35:40;;;;;;;0.40;0.30;;;8.90;99.90;;;;;;5015452;28;20849;-75
2021/05/25 02:38:08;;;;;;;0.40;0.30;;;9.50;99.90;;;;;;5004699;28;20393;-72
2021/05/25 02:40:34;;;;;;;0.40;0.30;;;9.00;99.90;;;;;;5010920;28;20384;-72
2021/05/25 02:43:00;;;;;;;0.40;0.20;;;8.90;99.90;;;;;;5011242;28;20385;-72
2021/05/25 02:45:26;;;;;;;0.40;0.30;;;8.90;99.90;;;;;;5010818;28;20464;-73
2021/05/25 02:47:52;;;;;;;0.40;0.20;;;8.90;99.90;;;;;;5011214;28;20487;-72
2021/05/25 02:50:19;;;;;;;0.40;0.20;;;9.20;99.90;;;;;;5010997;28;20412;-72
2021/05/25 02:52:47;;;;;;;0.40;0.30;;;8.80;99.90;;;;;;5010549;28;20418;-73
2021/05/25 02:55:18;;;;;;;0.40;0.30;;;8.90;99.90;;;;;;5011244;28;20477;-75
2021/05/25 02:57:44;;;;;;;0.40;0.30;;;8.90;99.90;;;;;;5010548;28;20747;-73
2021/05/25 03:00:14;;;;;;;0.40;0.20;;;8.80;99.90;;;;;;5011230;28;20388;-74
2021/05/25 03:02:39;;;;;;;0.40;0.22;;;8.80;99.90;;;;;;5030185;28;20399;-73
2021/05/25 03:05:07;;;;;;;0.40;0.30;;;8.90;99.90;;;;;;5030886;28;20426;-73
2021/05/25 03:07:33;;;;;;;0.40;0.20;;;8.70;99.90;;;;;;5030431;28;20407;-72
2021/05/25 03:09:59;;;;;;;0.40;0.30;;;9.00;99.90;;;;;;5014004;28;20411;-72
2021/05/25 03:12:25;;;;;;;0.40;0.30;;;9.00;99.90;;;;;;5034198;28;20900;-74
2021/05/25 03:14:51;;;;;;;0.40;0.30;;;9.20;99.90;;;;;;5035254;28;20469;-73
2021/05/25 03:17:21;;;;;;;0.40;0.30;;;8.70;99.90;;;;;;5034983;28;20374;-73
2021/05/25 03:19:46;;;;;;;0.40;0.30;;;8.70;99.90;;;;;;5034271;28;20428;-73
2021/05/25 03:22:12;;;;;;;0.40;0.30;;;8.70;99.90;;;;;;5034973;28;20462;-73
2021/05/25 03:24:37;;;;;;;0.40;0.30;;;8.70;99.90;;;;;;5033835;28;20383;-73
2021/05/25 03:27:03;;;;;;;0.40;0.30;;;8.80;99.90;;;;;;5034901;28;20379;-73
2021/05/25 03:29:29;;;;;;;0.40;0.30;;;8.80;99.90;;;;;;5034088;28;20502;-72
2021/05/25 03:31:54;;;;;;;0.40;0.30;;;8.60;99.90;;;;;;5016836;28;20456;-73
2021/05/25 03:34:20;;;;;;;0.40;0.30;;;8.70;99.90;;;;;;5034455;28;20433;-74
2021/05/25 03:36:45;;;;;;;0.40;0.30;;;8.70;99.90;;;;;;5034230;28;20958;-73
2021/05/25 03:39:11;;;;;;;0.40;0.30;;;8.70;99.90;;;;;;5034869;28;20723;-74
2021/05/25 03:41:36;;;;;;;0.40;0.30;;;8.70;99.90;;;;;;5033700;28;20418;-74
2021/05/25 03:44:02;;;;;;;0.40;0.30;;;8.70;99.90;;;;;;5016633;28;20384;-74
2021/05/25 03:46:28;;;;;;;0.40;0.20;;;8.70;99.90;;;;;;5033690;28;20390;-73
2021/05/25 03:48:54;;;;;;;0.40;0.30;;;8.80;99.90;;;;;;5034212;28;20988;-72
2021/05/25 03:51:19;;;;;;;0.40;0.30;;;8.80;99.90;;;;;;5034308;28;20407;-73
2021/05/25 03:53:45;;;;;;;0.40;0.30;;;8.80;99.90;;;;;;5033673;28;20651;-74
2021/05/25 03:58:50;;;;;;;0.40;0.30;;;8.80;99.90;;;;;;5033608;28;20825;-73
2021/05/25 04:01:17;;;;;;;0.40;0.30;;;9.30;99.90;;;;;;5025874;28;20432;-73
2021/05/25 04:03:43;;;;;;;0.40;0.30;;;8.90;99.90;;;;;;5013796;28;20389;-73
2021/05/25 04:06:09;;;;;;;0.40;0.30;;;9.20;99.90;;;;;;5014233;28;20519;-72
2021/05/25 04:08:34;;;;;;;0.40;0.30;;;8.90;99.90;;;;;;5013815;28;20409;-76
2021/05/25 04:11:00;;;;;;;0.40;0.20;;;9.10;99.90;;;;;;5014296;28;20831;-72
2021/05/25 04:13:26;;;;;;;0.40;0.30;;;8.90;99.90;;;;;;5014350;28;20393;-72
2021/05/25 04:15:54;;;;;;;0.40;0.30;;;8.90;99.90;;;;;;5013471;28;20490;-73
2021/05/25 04:18:20;;;;;;;0.40;0.30;;;8.80;99.90;;;;;;5014263;28;20385;-72
2021/05/25 04:20:46;;;;;;;0.40;0.30;;;8.90;99.90;;;;;;5020170;28;20703;-74
2021/05/25 04:23:12;;;;;;;0.40;0.30;;;8.80;99.90;;;;;;5033711;28;20907;-73
2021/05/25 04:25:37;;;;;;;0.40;0.20;;;9.10;99.90;;;;;;5033111;28;20419;-73
2021/05/25 04:28:04;;;;;;;0.40;0.20;;;8.60;99.90;;;;;;5033490;28;20411;-73
2021/05/25 04:30:30;;;;;;;0.40;0.20;;;9.00;99.90;;;;;;5032714;28;20409;-73
2021/05/25 04:32:55;;;;;;;0.40;0.30;;;9.00;99.90;;;;;;5033654;28;20391;-73
2021/05/25 04:35:21;;;;;;;0.40;0.20;;;10.40;99.90;;;;;;5033574;28;20707;-73
2021/05/25 04:37:47;;;;;;;0.40;0.30;;;9.00;99.90;;;;;;5032998;28;20396;-73
2021/05/25 04:40:13;;;;;;;0.40;0.20;;;9.70;99.90;;;;;;5033484;28;20384;-73
2021/05/25 04:42:39;;;;;;;0.40;0.30;;;9.10;99.90;;;;;;5033166;28;20784;-74
2021/05/25 04:45:08;;;;;;;0.40;0.20;;;9.00;99.90;;;;;;5014803;28;21396;-73
2021/05/25 04:47:33;;;;;;;0.40;0.30;;;9.00;99.90;;;;;;5032737;28;20482;-74
2021/05/25 04:49:59;;;;;;;0.40;0.20;;;9.00;99.90;;;;;;5033127;28;20861;-73
2021/05/25 04:52:25;;;;;;;0.40;0.28;;;8.70;99.90;;;;;;5033460;28;20383;-72
2021/05/25 04:54:50;;;;;;;0.40;0.30;;;9.00;99.90;;;;;;5032369;28;20478;-72
2021/05/25 04:57:16;;;;;;;0.40;0.20;;;9.10;99.90;;;;;;5033359;28;20498;-73
2021/05/25 04:59:42;;;;;;;0.40;0.30;;;9.40;99.90;;;;;;5032556;28;20387;-73
2021/05/25 05:02:08;;;;;;;0.40;0.20;;;9.40;99.90;;;;;;5017732;28;20399;-74
2021/05/25 05:04:33;;;;;;;0.40;0.20;;;9.10;99.90;;;;;;5012674;28;20476;-73
2021/05/25 05:06:59;;;;;;;0.40;0.30;;;9.70;99.90;;;;;;5012979;28;20876;-74
2021/05/25 05:09:25;;;;;;;0.40;0.30;;;9.80;99.90;;;;;;5013231;28;20425;-74
2021/05/25 05:11:50;;;;;;;0.40;0.30;;;9.00;99.90;;;;;;5012499;28;20448;-74
2021/05/25 05:14:16;;;;;;;0.40;0.20;;;9.20;99.90;;;;;;5013519;28;20384;-74
2021/05/25 05:16:42;;;;;;;0.40;0.20;;;9.10;99.90;;;;;;4994870;28;20384;-74
2021/05/25 05:19:07;;;;;;;0.40;0.20;;;9.50;99.90;;;;;;5013094;28;20471;-73
2021/05/25 05:21:33;;;;;;;0.40;0.20;;;9.20;99.90;;;;;;5012407;28;20422;-74
2021/05/25 05:23:58;;;;;;;0.40;0.20;;;9.30;99.90;;;;;;4995467;28;20416;-73
2021/05/25 05:26:24;;;;;;;0.40;0.30;;;10.10;99.90;;;;;;5012981;28;20385;-73
2021/05/25 05:28:50;;;;;;;0.40;0.20;;;9.40;99.90;;;;;;4994709;28;20835;-76
2021/05/25 05:31:15;;;;;;;0.40;0.20;;;9.40;99.90;;;;;;5012658;28;20388;-74
2021/05/25 05:33:41;;;;;;;0.40;0.20;;;9.20;99.90;;;;;;4994054;28;20795;-75
2021/05/25 05:36:08;;;;;;;0.40;0.20;;;9.40;99.90;;;;;;5012755;28;20381;-74
2021/05/25 05:38:33;;;;;;;0.40;0.30;;;9.40;99.90;;;;;;5012220;28;20417;-73
2021/05/25 05:41:07;;;;;;;0.40;0.30;;;9.40;99.90;;;;;;5012719;28;20388;-75
2021/05/25 05:43:33;;;;;;;0.40;0.20;;;9.30;99.90;;;;;;5011779;28;20484;-76
2021/05/25 05:45:59;;;;;;;0.40;0.30;;;9.40;99.90;;;;;;5012563;28;20464;-75
2021/05/25 05:48:28;;;;;;;0.40;0.20;;;9.40;99.90;;;;;;5012501;28;20452;-73
2021/05/25 05:50:55;;;;;;;0.40;0.20;;;9.20;99.90;;;;;;5011396;28;20411;-74
2021/05/25 05:53:20;;;;;;;0.40;0.20;;;9.40;99.90;;;;;;5012109;28;20415;-76
2021/05/25 05:55:46;;;;;;;0.40;0.30;;;9.40;99.90;;;;;;5029894;28;20889;-75
2021/05/25 05:58:12;;;;;;;0.40;0.20;;;9.40;99.90;;;;;;5031785;28;20398;-75
2021/05/25 06:00:41;;;;;;;0.40;0.20;;;9.50;99.90;;;;;;5028063;28;20400;-75
2021/05/25 06:03:07;;;;;;;0.40;0.20;;;9.60;99.90;;;;;;4994360;28;20733;-74
2021/05/25 06:05:35;;;;;;;0.40;0.30;;;9.60;99.90;;;;;;5011968;28;20385;-78
2021/05/25 06:08:01;;;;;;;0.40;0.30;;;9.70;99.90;;;;;;5011870;28;20432;-74
2021/05/25 06:10:29;;;;;;;0.40;0.20;;;10.10;99.90;;;;;;4994198;28;20385;-74
2021/05/25 06:12:55;;;;;;;0.40;0.30;;;9.60;99.90;;;;;;5011051;28;20381;-73
2021/05/25 06:15:20;;;;;;;0.40;0.30;;;9.90;99.90;;;;;;5011433;28;20867;-75
2021/05/25 06:17:46;;;;;;;0.40;0.20;;;9.80;99.90;;;;;;5010585;28;20388;-73
2021/05/25 06:20:12;;;;;;;0.40;0.30;;;9.90;99.90;;;;;;5011096;28;20401;-74
2021/05/25 06:22:38;;;;;;;0.40;0.20;;;9.90;99.90;;;;;;4992779;28;20407;-75
2021/05/25 06:25:06;;;;;;;0.40;0.20;;;9.90;99.90;;;;;;5011521;28;20863;-75
2021/05/25 06:27:32;;;;;;;0.40;0.20;;;10.00;99.90;;;;;;5011231;28;20424;-74
2021/05/25 06:29:57;;;;;;;0.40;0.30;;;10.00;99.90;;;;;;4992725;28;20460;-73
2021/05/25 06:32:23;;;;;;;0.40;0.30;;;10.90;99.90;;;;;;5011331;28;20475;-73
2021/05/25 06:34:51;;;;;;;0.40;0.20;;;10.10;99.90;;;;;;4992615;28;20396;-72
2021/05/25 06:37:17;;;;;;;0.40;0.30;;;10.30;99.90;;;;;;4993688;28;20803;-73
2021/05/25 06:39:43;;;;;;;0.40;0.30;;;10.20;99.90;;;;;;4992877;28;20463;-75
2021/05/25 06:42:10;;;;;;;0.40;0.30;;;10.20;99.90;;;;;;5010969;28;20388;-77
2021/05/25 06:44:36;;;;;;;0.40;0.20;;;10.20;99.90;;;;;;5010457;28;20397;-80
2021/05/25 06:47:02;;;;;;;0.40;0.30;;;10.30;99.90;;;;;;5011721;28;20388;-76
2021/05/25 06:49:27;;;;;;;0.40;0.20;;;10.30;99.90;;;;;;5011203;28;20408;-74
2021/05/25 06:51:53;;;;;;;0.40;0.30;;;10.70;99.90;;;;;;5010968;28;20388;-75
2021/05/25 06:54:19;;;;;;;0.40;0.20;;;10.80;99.60;;;;;;5010454;28;20812;-74
2021/05/25 06:56:45;;;;;;;0.40;0.20;;;10.20;99.90;;;;;;5008796;28;20417;-73
2021/05/25 06:59:11;;;;;;;0.40;0.20;;;10.20;99.90;;;;;;5009088;28;20380;-75
2021/05/25 07:01:37;;;;;;;0.40;0.20;;;10.30;99.90;;;;;;5020563;28;20438;-78
2021/05/25 07:04:03;;;;;;;0.40;0.20;;;10.30;99.90;;;;;;5029542;28;20414;-73
2021/05/25 07:06:29;;;;;;;0.40;0.20;;;10.40;99.90;;;;;;5030626;28;20386;-71
2021/05/25 07:08:54;;;;;;;0.40;0.30;;;10.30;99.90;;;;;;5029653;28;20411;-75
2021/05/25 07:11:21;;;;;;;0.40;0.20;;;10.30;99.90;;;;;;5012835;28;20395;-73
2021/05/25 07:13:47;;;;;;;0.40;0.20;;;10.20;98.80;;;;;;5029610;28;20380;-73
2021/05/25 07:16:13;;;;;;;0.40;0.30;;;10.30;99.60;;;;;;5030172;28;20384;-73
2021/05/25 07:18:39;;;;;;;0.40;0.30;;;10.50;99.90;;;;;;5030388;28;20441;-75
2021/05/25 07:21:05;;;;;;;0.40;0.20;;;10.60;99.90;;;;;;5013145;28;20445;-73
2021/05/25 07:23:31;;;;;;;0.40;0.20;;;10.60;99.00;;;;;;5030983;28;20383;-73
2021/05/25 07:25:56;;;;;;;0.70;0.70;;;10.60;98.60;;;;;;5030359;28;20758;-73
2021/05/25 07:28:22;;;;;;;0.40;0.30;;;10.60;98.80;;;;;;5030336;28;20414;-73
2021/05/25 07:30:48;;;;;;;0.40;0.30;;;10.50;99.30;;;;;;5029731;28;20449;-74
2021/05/25 07:33:14;;;;;;;0.40;0.30;;;10.50;99.60;;;;;;5030760;28;20854;-72
2021/05/25 07:35:40;;;;;;;0.40;0.20;;;10.50;99.80;;;;;;5030032;28;20394;-73
2021/05/25 07:38:06;;;;;;;0.40;0.20;;;10.60;99.70;;;;;;5030768;28;20379;-74
2021/05/25 07:40:32;;;;;;;0.40;0.30;;;10.80;99.60;;;;;;5030874;28;20411;-73
2021/05/25 07:42:58;;;;;;;0.40;0.30;;;10.90;98.80;;;;;;5029901;28;20388;-72
2021/05/25 07:45:23;;;;;;;0.40;0.28;;;10.80;97.20;;;;;;5030699;28;20375;-73
2021/05/25 07:47:49;;;;;;;0.40;0.20;;;10.80;97.00;;;;;;5011990;28;21039;-73
2021/05/25 07:50:16;;;;;;;0.40;0.20;;;10.90;96.40;;;;;;5030567;28;20406;-74
2021/05/25 07:52:49;;;;;;;0.40;0.30;;;11.00;96.60;;;;;;5029949;28;20390;-74
2021/05/25 07:55:17;;;;;;;0.40;0.20;;;11.10;96.10;;;;;;5030588;28;20482;-75
2021/05/25 07:57:43;;;;;;;0.40;0.30;;;11.20;95.40;;;;;;5033441;28;20458;-78
2021/05/25 08:00:11;;;;;;;0.40;0.30;;;11.20;95.10;;;;;;5016532;28;21074;-74
2021/05/25 08:02:36;;;;;;;0.40;0.20;;;11.00;93.80;;;;;;5014664;28;20914;-74
2021/05/25 08:05:04;;;;;;;0.40;0.30;;;11.20;94.50;;;;;;5013914;28;20385;-74
2021/05/25 08:07:29;;;;;;;0.40;0.20;;;11.30;94.90;;;;;;5014395;28;20479;-71
2021/05/25 08:09:56;;;;;;;0.40;0.20;;;11.20;96.00;;;;;;5013452;28;20906;-74
2021/05/25 08:12:21;;;;;;;0.40;0.20;;;11.20;94.90;;;;;;5014369;28;20448;-74
2021/05/25 08:14:47;;;;;;;0.40;0.30;;;11.20;94.50;;;;;;4996058;28;20401;-73
2021/05/25 08:17:23;;;;;;;0.40;0.30;;;11.40;95.10;;;;;;5014188;28;20389;-73
2021/05/25 08:19:49;;;;;;;0.40;0.20;;;11.40;95.40;;;;;;5013451;28;20933;-74
2021/05/25 08:22:15;;;;;;;0.40;0.20;;;11.30;94.80;;;;;;4996454;28;20396;-77
2021/05/25 08:24:45;;;;;;;0.40;0.30;;;11.40;94.50;;;;;;5014108;28;20385;-75
2021/05/25 08:27:10;;;;;;;0.40;0.30;;;11.70;94.90;;;;;;5014145;28;20483;-73
2021/05/25 08:29:36;;;;;;;0.40;0.20;;;11.50;93.80;;;;;;5013803;28;20500;-73
2021/05/25 08:32:02;;;;;;;0.40;0.20;;;11.30;93.00;;;;;;5013192;28;20638;-73
2021/05/25 08:34:27;;;;;;;0.40;0.20;;;11.50;93.90;;;;;;5013869;28;20388;-76
2021/05/25 08:36:53;;;;;;;0.40;0.30;;;11.50;92.90;;;;;;4995831;28;20401;-72
2021/05/25 08:39:22;;;;;;;0.40;0.20;;;11.70;93.80;;;;;;5013540;28;20819;-74
2021/05/25 08:41:48;;;;;;;0.40;0.20;;;11.60;93.70;;;;;;5012964;28;20468;-75
2021/05/25 08:44:13;;;;;;;0.40;0.20;;;11.70;93.20;;;;;;5013860;28;20472;-75
2021/05/25 08:46:45;;;;;;;0.40;0.20;;;11.70;92.50;;;;;;5013568;28;20389;-75
2021/05/25 08:49:12;;;;;;;0.40;0.20;;;11.70;90.70;;;;;;4996111;28;20508;-74
2021/05/25 08:51:38;;;;;;;0.40;0.20;;;11.80;90.40;;;;;;5013718;28;20715;-73
2021/05/25 08:54:07;;;;;;;0.40;0.20;;;11.80;90.60;;;;;;5012690;28;20397;-75
2021/05/25 08:56:33;;;;;;;0.40;0.20;;;11.80;90.10;;;;;;5013156;28;20735;-75
2021/05/25 08:58:58;;;;;;;0.40;0.30;;;12.10;90.30;;;;;;5012528;28;20396;-75
2021/05/25 09:01:25;;;;;;;0.40;0.30;;;12.20;90.20;;;;;;5001405;28;20397;-74
2021/05/25 09:03:58;;;;;;;0.40;0.30;;;12.20;88.40;;;;;;5012493;28;20395;-75
2021/05/25 09:06:38;;;;;;;0.40;0.20;;;12.30;88.80;;;;;;5013546;28;20416;-73
2021/05/25 09:09:15;;;;;;;0.40;0.30;;;12.40;89.10;;;;;;5010351;28;20495;-72
2021/05/25 09:12:05;;;;;;;0.40;0.20;;;12.40;90.20;;;;;;5013353;28;20400;-74
2021/05/25 09:14:33;;;;;;;0.40;0.20;;;12.30;86.50;;;;;;5011959;28;20763;-71
2021/05/25 09:17:22;;;;;;;0.40;0.20;;;12.20;87.80;;;;;;5012624;28;20377;-73
2021/05/25 09:19:50;;;;;;;0.40;0.30;;;12.30;85.60;;;;;;5012535;28;20396;-74
2021/05/25 09:22:40;;;;;;;0.40;0.28;;;12.10;83.50;;;;;;5013120;28;20377;-72
2021/05/25 09:25:14;;;;;;;0.40;0.30;;;12.30;84.60;;;;;;5002930;28;20495;-72
2021/05/25 09:27:43;;;;;;;0.40;0.20;;;12.20;84.00;;;;;;5012983;28;20384;-72
2021/05/25 09:30:13;;;;;;;0.40;0.30;;;12.30;83.20;;;;;;5011975;28;20424;-73
2021/05/25 09:32:52;;;;;;;0.40;0.20;;;12.20;83.10;;;;;;5012860;28;20838;-74
2021/05/25 09:35:22;;;;;;;0.40;0.30;;;12.20;84.00;;;;;;5011475;28;20384;-75
2021/05/25 09:37:50;;;;;;;0.40;0.20;;;12.10;82.70;;;;;;5012245;28;20388;-73
2021/05/25 09:40:18;;;;;;;0.40;0.20;;;12.30;83.30;;;;;;5012726;28;20471;-73
2021/05/25 09:42:46;;;;;;;0.40;0.20;;;12.30;83.20;;;;;;5012703;28;20415;-74
2021/05/25 09:45:15;;;;;;;0.40;0.20;;;12.40;82.90;;;;;;5012399;28;20468;-72
2021/05/25 09:47:55;;;;;;;0.40;0.30;;;12.80;82.60;;;;;;5015520;28;20392;-73
2021/05/25 09:50:23;;;;;;;0.40;0.20;;;12.40;81.20;;;;;;5025285;28;20790;-74
2021/05/25 09:53:11;;;;;;;0.40;0.30;;;13.10;82.50;;;;;;5011570;28;20417;-73
2021/05/25 09:55:53;;;;;;;0.40;0.20;;;12.30;81.80;;;;;;4997522;28;20479;-73
2021/05/25 09:58:32;;;;;;;0.40;0.30;;;12.40;81.70;;;;;;5011144;28;20802;-73
2021/05/25 10:00:58;;;;;;;0.40;0.30;;;12.40;81.00;;;;;;5006724;28;20949;-73
2021/05/25 10:03:26;;;;;;;0.40;0.30;;;12.40;78.10;;;;;;5012176;28;20649;-73
2021/05/25 10:05:59;;;;;;;0.40;0.30;;;12.40;77.70;;;;;;4993946;28;20828;-73
2021/05/25 10:08:25;;;;;;;0.40;0.30;;;12.50;77.40;;;;;;5011828;28;20883;-73
2021/05/25 10:10:54;;;;;;;0.40;0.20;;;12.50;76.00;;;;;;5014648;28;20402;-74
2021/05/25 10:13:20;;;;;;;0.40;0.20;;;12.50;75.80;;;;;;5024815;28;20391;-74
2021/05/25 10:15:47;;;;;;;0.40;0.30;;;12.50;75.20;;;;;;5021637;28;20391;-75
2021/05/25 10:18:32;;;;;;;0.40;0.30;;;12.40;75.00;;;;;;5011329;28;20388;-73
2021/05/25 10:21:04;;;;;;;0.40;0.30;;;12.40;75.30;;;;;;4993033;28;20397;-74
2021/05/25 10:23:33;;;;;;;0.40;0.20;;;12.60;75.80;;;;;;5011921;28;20416;-74
2021/05/25 10:26:08;;;;;;;0.40;0.30;;;12.70;74.70;;;;;;4993817;28;20400;-73
2021/05/25 10:28:40;;;;;;;0.40;0.30;;;12.70;74.40;;;;;;5011878;28;20454;-74
2021/05/25 10:31:32;;;;;;;0.40;0.30;;;12.60;73.00;;;;;;5011576;28;20904;-75
2021/05/25 10:34:20;;;;;;;0.40;0.20;;;12.60;74.00;;;;;;5011287;28;20384;-73
2021/05/25 10:36:54;;;;;;;0.40;0.22;;;12.50;73.90;;;;;;5024746;28;20418;-73
2021/05/25 10:39:40;;;;;;;0.40;0.20;;;12.60;74.70;;;;;;5031467;28;20474;-76
2021/05/25 10:42:17;;;;;;;0.40;0.20;;;12.70;74.30;;;;;;5030884;28;20385;-74
2021/05/25 10:44:48;;;;;;;0.40;0.20;;;12.50;73.90;;;;;;5031323;28;20391;-73
2021/05/25 10:47:56;;;;;;;0.40;0.20;;;12.40;73.90;;;;;;5012576;28;20917;-76
2021/05/25 10:52:55;;;;;;;0.40;0.30;;;12.40;73.40;;;;;;5030983;28;20390;-73
2021/05/25 10:55:28;;;;;;;0.40;0.20;;;12.40;73.60;;;;;;5031092;28;20389;-73
2021/05/25 10:57:54;;;;;;;0.40;0.20;;;12.50;74.80;;;;;;5030666;28;20765;-74
2021/05/25 11:00:29;;;;;;;0.40;0.30;;;12.60;74.60;;;;;;5029926;28;20830;-75
2021/05/25 11:03:19;;;;;;;0.40;0.20;;;12.70;75.30;;;;;;5010874;28;20487;-73
2021/05/25 11:05:56;;;;;;;0.40;0.20;;;12.90;76.60;;;;;;5005246;28;20407;-76
2021/05/25 11:08:33;;;;;;;0.40;0.20;;;13.00;73.40;;;;;;5010487;28;20417;-74
2021/05/25 11:11:04;;;;;;;0.40;0.20;;;13.20;74.00;;;;;;4992881;28;20822;-74
2021/05/25 11:13:39;;;;;;;0.40;0.20;;;13.60;73.20;;;;;;4993669;28;20875;-73
2021/05/25 11:16:20;;;;;;;0.40;0.30;;;13.70;72.60;;;;;;5010440;28;20384;-73
2021/05/25 11:18:59;;;;;;;0.40;0.20;;;13.80;69.90;;;;;;5011332;28;20464;-73
2021/05/25 11:24:33;;;;;;;0.40;0.30;;;14.20;69.90;;;;;;5010425;28;20399;-73
2021/05/25 11:27:26;;;;;;;0.40;0.30;;;14.00;71.20;;;;;;5010765;28;20397;-73
2021/05/25 11:29:59;;;;;;;0.40;0.30;;;14.40;67.20;;;;;;5011011;28;20434;-73
2021/05/25 11:32:40;;;;;;;0.40;0.30;;;14.90;63.80;;;;;;4996624;28;20970;-73
2021/05/25 11:35:11;;;;;;;0.40;0.30;;;15.00;63.90;;;;;;5019553;28;20738;-73
2021/05/25 11:37:44;;;;;;;0.40;0.20;;;14.90;66.20;;;;;;5034864;28;20383;-72
2021/05/25 11:40:12;;;;;;;0.40;0.20;;;15.50;64.90;;;;;;5022565;28;20454;-72
2021/05/25 11:42:39;;;;;;;0.40;0.30;;;15.30;64.00;;;;;;5014849;28;20393;-72
2021/05/25 11:45:09;;;;;;;0.40;0.20;;;15.10;64.10;;;;;;5014114;28;20403;-73
2021/05/25 11:47:35;;;;;;;0.40;0.20;;;14.90;66.40;;;;;;5014505;28;20388;-72
2021/05/25 11:50:01;;;;;;;0.40;0.30;;;15.30;66.80;;;;;;4996020;28;20420;-73
2021/05/25 11:52:35;;;;;;;0.40;0.20;;;15.10;62.40;;;;;;5014780;28;20867;-74
2021/05/25 11:55:12;;;;;;;0.40;0.20;;;14.70;61.90;;;;;;5013929;28;20460;-71
2021/05/25 11:57:42;;;;;;;0.40;0.20;;;14.80;63.80;;;;;;4997109;28;20408;-72
2021/05/25 12:00:13;;;;;;;0.40;0.20;;;14.60;62.90;;;;;;5018063;28;20727;-73
2021/05/25 12:02:40;;;;;;;0.40;0.20;;;14.30;64.30;;;;;;5014661;28;20400;-73
2021/05/25 12:05:08;;;;;;;0.40;0.20;;;14.00;65.10;;;;;;5013649;28;20717;-74
2021/05/25 12:07:34;;;;;;;0.40;0.20;;;13.80;66.10;;;;;;5014405;28;20385;-73
2021/05/25 12:10:02;;;;;;;0.40;0.20;;;13.80;66.70;;;;;;5013686;28;20740;-73
2021/05/25 12:12:29;;;;;;;0.40;0.20;;;14.40;65.70;;;;;;5014382;28;20725;-73
2021/05/25 12:14:59;;;;;;;0.40;0.30;;;15.40;63.50;;;;;;5014318;28;20381;-73
2021/05/25 12:17:26;;;;;;;0.40;0.20;;;16.30;61.70;;;;;;5014211;28;20381;-74
2021/05/25 12:19:58;;;;;;;0.40;0.20;;;16.70;59.00;;;;;;5026929;28;20482;-71
2021/05/25 12:22:38;;;;;;;0.40;0.30;;;17.00;58.70;;;;;;5025389;28;20505;-72
2021/05/25 12:25:23;;;;;;;0.40;0.20;;;16.60;57.60;;;;;;5015150;28;20398;-72
2021/05/25 12:28:01;;;;;;;0.40;0.30;;;17.10;58.90;;;;;;5015726;28;20417;-72
2021/05/25 12:30:28;;;;;;;0.40;0.20;;;16.40;59.00;;;;;;5015325;28;20498;-72
2021/05/25 12:32:54;;;;;;;0.40;0.30;;;16.10;59.10;;;;;;5015425;28;20932;-72
2021/05/25 12:35:26;;;;;;;0.40;0.20;;;15.90;58.20;;;;;;5014583;28;20437;-72
2021/05/25 12:38:10;;;;;;;0.40;0.30;;;16.70;57.10;;;;;;5015518;28;20766;-72
2021/05/25 12:40:40;;;;;;;0.40;0.20;;;16.80;55.20;;;;;;5033116;28;20903;-71
2021/05/25 12:43:26;;;;;;;0.40;0.22;;;16.10;55.80;;;;;;5026013;28;20397;-73
2021/05/25 12:45:53;;;;;;;0.40;0.20;;;16.40;58.00;;;;;;5013195;28;20401;-72
2021/05/25 12:48:32;;;;;;;0.40;0.30;;;16.90;55.50;;;;;;4994854;28;20408;-72
2021/05/25 12:50:57;;;;;;;0.40;0.20;;;17.20;54.90;;;;;;4992250;28;20478;-76
2021/05/25 12:53:23;;;;;;;0.40;0.30;;;16.80;54.60;;;;;;4993394;28;20386;-74
2021/05/25 12:55:52;;;;;;;0.40;0.30;;;15.50;55.50;;;;;;4993388;28;20470;-74
2021/05/25 12:58:40;;;;;;;0.40;0.20;;;15.30;57.30;;;;;;4992137;28;20892;-74
2021/05/25 13:01:32;;;;;;;0.40;0.25;;;16.00;56.90;;;;;;4992522;28;20414;-73
2021/05/25 13:04:06;;;;;;;0.40;0.28;;;17.10;56.90;;;;;;4993205;28;20410;-74
2021/05/25 13:06:47;;;;;;;0.40;0.20;;;17.50;55.10;;;;;;4991845;28;20391;-74